sensor_id;sensor_type;location;lat;lon;timestamp;P1;durP1;ratioP1;P2;durP2;ratioP2
59854;SDS011;45732;52.850;6.896;2022-11-15T00:00:24;24.92;;;19.67;;
59854;SDS011;45732;52.850;6.896;2022-11-15T00:02:51;23.45;;;18.55;;
59854;SDS011;45732;52.850;6.896;2022-11-15T00:05:18;22.23;;;18.13;;
59854;SDS011;45732;52.850;6.896;2022-11-15T00:07:44;23.60;;;18.13;;
59854;SDS011;45732;52.850;6.896;2022-11-15T00:10:09;21.35;;;16.75;;
59854;SDS011;45732;52.850;6.896;2022-11-15T00:12:35;21.83;;;17.20;;
59854;SDS011;45732;52.850;6.896;2022-11-15T00:15:01;20.92;;;17.02;;
59854;SDS011;45732;52.850;6.896;2022-11-15T00:17:26;21.75;;;17.73;;
59854;SDS011;45732;52.850;6.896;2022-11-15T00:19:52;21.40;;;16.48;;
59854;SDS011;45732;52.850;6.896;2022-11-15T00:22:18;20.85;;;16.35;;
59854;SDS011;45732;52.850;6.896;2022-11-15T00:24:43;22.42;;;16.67;;
59854;SDS011;45732;52.850;6.896;2022-11-15T00:27:09;21.08;;;16.40;;
59854;SDS011;45732;52.850;6.896;2022-11-15T00:29:35;21.80;;;16.45;;
59854;SDS011;45732;52.850;6.896;2022-11-15T00:32:02;20.52;;;16.35;;
59854;SDS011;45732;52.850;6.896;2022-11-15T00:34:28;21.50;;;17.08;;
59854;SDS011;45732;52.850;6.896;2022-11-15T00:36:54;23.65;;;17.60;;
59854;SDS011;45732;52.850;6.896;2022-11-15T00:39:19;25.45;;;18.85;;
59854;SDS011;45732;52.850;6.896;2022-11-15T00:41:45;21.58;;;17.90;;
59854;SDS011;45732;52.850;6.896;2022-11-15T00:44:11;21.45;;;17.35;;
59854;SDS011;45732;52.850;6.896;2022-11-15T00:46:36;22.83;;;17.80;;
59854;SDS011;45732;52.850;6.896;2022-11-15T00:49:02;24.45;;;18.58;;
59854;SDS011;45732;52.850;6.896;2022-11-15T00:51:27;23.42;;;18.23;;
59854;SDS011;45732;52.850;6.896;2022-11-15T00:53:53;22.25;;;17.80;;
59854;SDS011;45732;52.850;6.896;2022-11-15T00:56:19;24.30;;;17.85;;
59854;SDS011;45732;52.850;6.896;2022-11-15T00:58:45;26.55;;;19.25;;
59854;SDS011;45732;52.850;6.896;2022-11-15T01:01:12;26.55;;;18.77;;
59854;SDS011;45732;52.850;6.896;2022-11-15T01:03:39;23.73;;;18.63;;
59854;SDS011;45732;52.850;6.896;2022-11-15T01:06:06;24.52;;;18.50;;
59854;SDS011;45732;52.850;6.896;2022-11-15T01:08:33;24.92;;;18.67;;
59854;SDS011;45732;52.850;6.896;2022-11-15T01:11:06;22.42;;;17.92;;
59854;SDS011;45732;52.850;6.896;2022-11-15T01:13:35;24.40;;;18.55;;
59854;SDS011;45732;52.850;6.896;2022-11-15T01:16:09;26.10;;;17.05;;
59854;SDS011;45732;52.850;6.896;2022-11-15T01:18:38;24.60;;;17.20;;
59854;SDS011;45732;52.850;6.896;2022-11-15T01:21:05;25.05;;;17.55;;
59854;SDS011;45732;52.850;6.896;2022-11-15T01:23:32;25.08;;;17.48;;
59854;SDS011;45732;52.850;6.896;2022-11-15T01:25:59;23.48;;;16.77;;
59854;SDS011;45732;52.850;6.896;2022-11-15T01:28:29;24.73;;;17.70;;
59854;SDS011;45732;52.850;6.896;2022-11-15T01:30:59;23.55;;;18.15;;
59854;SDS011;45732;52.850;6.896;2022-11-15T01:33:26;25.02;;;17.98;;
59854;SDS011;45732;52.850;6.896;2022-11-15T01:35:53;25.58;;;17.83;;
59854;SDS011;45732;52.850;6.896;2022-11-15T01:38:19;26.58;;;17.95;;
59854;SDS011;45732;52.850;6.896;2022-11-15T01:40:45;23.25;;;17.50;;
59854;SDS011;45732;52.850;6.896;2022-11-15T01:45:55;24.95;;;17.65;;
59854;SDS011;45732;52.850;6.896;2022-11-15T01:48:26;23.67;;;17.15;;
59854;SDS011;45732;52.850;6.896;2022-11-15T01:50:56;24.70;;;18.30;;
59854;SDS011;45732;52.850;6.896;2022-11-15T01:53:23;23.73;;;17.83;;
59854;SDS011;45732;52.850;6.896;2022-11-15T01:55:50;23.10;;;17.33;;
59854;SDS011;45732;52.850;6.896;2022-11-15T01:58:17;24.08;;;17.58;;
59854;SDS011;45732;52.850;6.896;2022-11-15T02:00:42;22.20;;;16.48;;
59854;SDS011;45732;52.850;6.896;2022-11-15T02:03:08;24.15;;;17.60;;
59854;SDS011;45732;52.850;6.896;2022-11-15T02:05:34;24.45;;;16.98;;
59854;SDS011;45732;52.850;6.896;2022-11-15T02:08:01;26.58;;;18.20;;
59854;SDS011;45732;52.850;6.896;2022-11-15T02:10:27;23.63;;;17.73;;
59854;SDS011;45732;52.850;6.896;2022-11-15T02:12:53;26.50;;;18.15;;
59854;SDS011;45732;52.850;6.896;2022-11-15T02:15:21;25.23;;;18.02;;
59854;SDS011;45732;52.850;6.896;2022-11-15T02:18:10;22.80;;;16.55;;
59854;SDS011;45732;52.850;6.896;2022-11-15T02:20:52;23.98;;;17.13;;
59854;SDS011;45732;52.850;6.896;2022-11-15T02:32:06;27.60;;;18.50;;
59854;SDS011;45732;52.850;6.896;2022-11-15T02:37:23;28.00;;;18.15;;
59854;SDS011;45732;52.850;6.896;2022-11-15T02:43:08;27.65;;;18.67;;
59854;SDS011;45732;52.850;6.896;2022-11-15T02:46:06;29.63;;;18.77;;
59854;SDS011;45732;52.850;6.896;2022-11-15T02:48:39;28.85;;;18.48;;
59854;SDS011;45732;52.850;6.896;2022-11-15T02:51:08;26.88;;;17.83;;
59854;SDS011;45732;52.850;6.896;2022-11-15T02:53:34;28.60;;;18.75;;
59854;SDS011;45732;52.850;6.896;2022-11-15T02:56:00;27.88;;;18.83;;
59854;SDS011;45732;52.850;6.896;2022-11-15T03:02:05;27.92;;;18.45;;
59854;SDS011;45732;52.850;6.896;2022-11-15T03:07:07;31.13;;;20.20;;
59854;SDS011;45732;52.850;6.896;2022-11-15T03:12:46;29.42;;;19.45;;
59854;SDS011;45732;52.850;6.896;2022-11-15T03:15:32;31.38;;;19.67;;
59854;SDS011;45732;52.850;6.896;2022-11-15T03:18:05;28.90;;;19.70;;
59854;SDS011;45732;52.850;6.896;2022-11-15T03:20:37;27.73;;;19.08;;
59854;SDS011;45732;52.850;6.896;2022-11-15T03:23:04;27.25;;;18.58;;
59854;SDS011;45732;52.850;6.896;2022-11-15T03:25:33;32.22;;;19.83;;
59854;SDS011;45732;52.850;6.896;2022-11-15T03:28:02;30.73;;;19.45;;
59854;SDS011;45732;52.850;6.896;2022-11-15T03:30:30;29.42;;;19.50;;
59854;SDS011;45732;52.850;6.896;2022-11-15T03:32:59;31.17;;;19.90;;
59854;SDS011;45732;52.850;6.896;2022-11-15T03:35:27;29.77;;;20.10;;
59854;SDS011;45732;52.850;6.896;2022-11-15T03:38:09;31.90;;;21.42;;
59854;SDS011;45732;52.850;6.896;2022-11-15T03:40:47;29.45;;;20.88;;
59854;SDS011;45732;52.850;6.896;2022-11-15T03:46:14;35.22;;;21.35;;
59854;SDS011;45732;52.850;6.896;2022-11-15T03:48:50;33.80;;;20.92;;
59854;SDS011;45732;52.850;6.896;2022-11-15T03:51:19;32.25;;;21.08;;
59854;SDS011;45732;52.850;6.896;2022-11-15T03:53:45;30.63;;;21.63;;
59854;SDS011;45732;52.850;6.896;2022-11-15T03:56:11;35.83;;;22.10;;
59854;SDS011;45732;52.850;6.896;2022-11-15T03:58:37;30.88;;;21.30;;
59854;SDS011;45732;52.850;6.896;2022-11-15T04:01:02;31.55;;;21.58;;
59854;SDS011;45732;52.850;6.896;2022-11-15T04:03:28;32.33;;;21.88;;
59854;SDS011;45732;52.850;6.896;2022-11-15T04:05:54;34.95;;;22.25;;
59854;SDS011;45732;52.850;6.896;2022-11-15T04:08:19;38.60;;;22.33;;
59854;SDS011;45732;52.850;6.896;2022-11-15T04:10:45;37.65;;;23.70;;
59854;SDS011;45732;52.850;6.896;2022-11-15T04:13:14;36.38;;;23.27;;
59854;SDS011;45732;52.850;6.896;2022-11-15T04:15:39;42.08;;;24.13;;
59854;SDS011;45732;52.850;6.896;2022-11-15T04:18:05;35.40;;;22.55;;
59854;SDS011;45732;52.850;6.896;2022-11-15T04:20:31;45.67;;;26.98;;
59854;SDS011;45732;52.850;6.896;2022-11-15T04:23:16;39.65;;;26.17;;
59854;SDS011;45732;52.850;6.896;2022-11-15T04:26:02;37.80;;;26.08;;
59854;SDS011;45732;52.850;6.896;2022-11-15T04:28:29;45.95;;;27.77;;
59854;SDS011;45732;52.850;6.896;2022-11-15T04:30:55;49.00;;;33.75;;
59854;SDS011;45732;52.850;6.896;2022-11-15T04:33:21;50.58;;;30.15;;
59854;SDS011;45732;52.850;6.896;2022-11-15T04:35:48;50.70;;;31.52;;
59854;SDS011;45732;52.850;6.896;2022-11-15T04:38:34;45.58;;;29.60;;
59854;SDS011;45732;52.850;6.896;2022-11-15T04:41:00;47.88;;;29.83;;
59854;SDS011;45732;52.850;6.896;2022-11-15T04:43:26;47.72;;;32.00;;
59854;SDS011;45732;52.850;6.896;2022-11-15T04:45:52;48.65;;;32.70;;
59854;SDS011;45732;52.850;6.896;2022-11-15T04:48:18;47.20;;;31.02;;
59854;SDS011;45732;52.850;6.896;2022-11-15T04:50:44;55.20;;;32.17;;
59854;SDS011;45732;52.850;6.896;2022-11-15T04:53:09;53.75;;;32.30;;
59854;SDS011;45732;52.850;6.896;2022-11-15T04:55:35;51.95;;;31.92;;
59854;SDS011;45732;52.850;6.896;2022-11-15T04:58:01;53.08;;;32.72;;
59854;SDS011;45732;52.850;6.896;2022-11-15T05:00:28;41.78;;;28.48;;
59854;SDS011;45732;52.850;6.896;2022-11-15T05:02:55;44.25;;;29.75;;
59854;SDS011;45732;52.850;6.896;2022-11-15T05:05:39;51.72;;;32.00;;
59854;SDS011;45732;52.850;6.896;2022-11-15T05:08:05;52.47;;;37.53;;
59854;SDS011;45732;52.850;6.896;2022-11-15T05:10:31;48.60;;;32.42;;
59854;SDS011;45732;52.850;6.896;2022-11-15T05:12:57;48.45;;;31.15;;
59854;SDS011;45732;52.850;6.896;2022-11-15T05:15:22;48.22;;;31.67;;
59854;SDS011;45732;52.850;6.896;2022-11-15T05:17:48;45.85;;;29.88;;
59854;SDS011;45732;52.850;6.896;2022-11-15T05:20:14;48.63;;;30.52;;
59854;SDS011;45732;52.850;6.896;2022-11-15T05:22:40;46.70;;;29.63;;
59854;SDS011;45732;52.850;6.896;2022-11-15T05:25:06;76.32;;;69.40;;
59854;SDS011;45732;52.850;6.896;2022-11-15T05:27:33;47.80;;;31.70;;
59854;SDS011;45732;52.850;6.896;2022-11-15T05:29:59;49.88;;;44.50;;
59854;SDS011;45732;52.850;6.896;2022-11-15T05:32:24;38.35;;;27.10;;
59854;SDS011;45732;52.850;6.896;2022-11-15T05:34:51;40.53;;;32.65;;
59854;SDS011;45732;52.850;6.896;2022-11-15T05:37:19;43.05;;;29.73;;
59854;SDS011;45732;52.850;6.896;2022-11-15T05:39:45;43.03;;;28.75;;
59854;SDS011;45732;52.850;6.896;2022-11-15T05:42:14;36.03;;;28.02;;
59854;SDS011;45732;52.850;6.896;2022-11-15T05:44:41;40.42;;;26.60;;
59854;SDS011;45732;52.850;6.896;2022-11-15T05:47:13;42.53;;;32.10;;
59854;SDS011;45732;52.850;6.896;2022-11-15T05:49:47;38.38;;;27.70;;
59854;SDS011;45732;52.850;6.896;2022-11-15T05:52:15;45.05;;;27.20;;
59854;SDS011;45732;52.850;6.896;2022-11-15T05:54:43;38.08;;;29.63;;
59854;SDS011;45732;52.850;6.896;2022-11-15T05:57:09;40.13;;;25.65;;
59854;SDS011;45732;52.850;6.896;2022-11-15T05:59:35;40.50;;;29.98;;
59854;SDS011;45732;52.850;6.896;2022-11-15T06:02:01;38.55;;;33.15;;
59854;SDS011;45732;52.850;6.896;2022-11-15T06:04:27;35.33;;;25.20;;
59854;SDS011;45732;52.850;6.896;2022-11-15T06:06:52;35.85;;;27.52;;
59854;SDS011;45732;52.850;6.896;2022-11-15T06:09:18;39.45;;;25.67;;
59854;SDS011;45732;52.850;6.896;2022-11-15T06:11:43;34.78;;;25.77;;
59854;SDS011;45732;52.850;6.896;2022-11-15T06:14:09;49.72;;;44.58;;
59854;SDS011;45732;52.850;6.896;2022-11-15T06:16:35;34.47;;;26.33;;
59854;SDS011;45732;52.850;6.896;2022-11-15T06:19:01;37.40;;;25.05;;
59854;SDS011;45732;52.850;6.896;2022-11-15T06:21:26;35.08;;;25.15;;
59854;SDS011;45732;52.850;6.896;2022-11-15T06:23:55;34.33;;;25.08;;
59854;SDS011;45732;52.850;6.896;2022-11-15T06:26:20;36.97;;;25.10;;
59854;SDS011;45732;52.850;6.896;2022-11-15T06:28:46;34.38;;;25.23;;
59854;SDS011;45732;52.850;6.896;2022-11-15T06:31:12;36.70;;;27.02;;
59854;SDS011;45732;52.850;6.896;2022-11-15T06:33:38;35.60;;;25.83;;
59854;SDS011;45732;52.850;6.896;2022-11-15T06:36:05;43.75;;;37.45;;
59854;SDS011;45732;52.850;6.896;2022-11-15T06:38:33;36.25;;;26.58;;
59854;SDS011;45732;52.850;6.896;2022-11-15T06:41:04;32.95;;;24.80;;
59854;SDS011;45732;52.850;6.896;2022-11-15T06:43:31;37.10;;;25.02;;
59854;SDS011;45732;52.850;6.896;2022-11-15T06:45:58;33.20;;;23.05;;
59854;SDS011;45732;52.850;6.896;2022-11-15T06:48:24;33.47;;;22.77;;
59854;SDS011;45732;52.850;6.896;2022-11-15T06:50:54;30.80;;;23.42;;
59854;SDS011;45732;52.850;6.896;2022-11-15T06:53:21;34.72;;;24.73;;
59854;SDS011;45732;52.850;6.896;2022-11-15T06:55:47;37.85;;;28.60;;
59854;SDS011;45732;52.850;6.896;2022-11-15T06:58:13;33.97;;;25.58;;
59854;SDS011;45732;52.850;6.896;2022-11-15T07:00:39;34.05;;;22.80;;
59854;SDS011;45732;52.850;6.896;2022-11-15T07:03:05;38.63;;;25.10;;
59854;SDS011;45732;52.850;6.896;2022-11-15T07:05:31;33.00;;;23.77;;
59854;SDS011;45732;52.850;6.896;2022-11-15T07:07:57;33.97;;;25.50;;
59854;SDS011;45732;52.850;6.896;2022-11-15T07:10:23;35.72;;;22.95;;
59854;SDS011;45732;52.850;6.896;2022-11-15T07:12:53;30.05;;;22.95;;
59854;SDS011;45732;52.850;6.896;2022-11-15T07:15:21;32.35;;;23.58;;
59854;SDS011;45732;52.850;6.896;2022-11-15T07:17:51;30.05;;;22.95;;
59854;SDS011;45732;52.850;6.896;2022-11-15T07:20:17;34.47;;;23.27;;
59854;SDS011;45732;52.850;6.896;2022-11-15T07:22:43;31.75;;;22.88;;
59854;SDS011;45732;52.850;6.896;2022-11-15T07:25:12;34.22;;;23.30;;
59854;SDS011;45732;52.850;6.896;2022-11-15T07:27:37;32.53;;;23.65;;
59854;SDS011;45732;52.850;6.896;2022-11-15T07:30:03;32.72;;;23.67;;
59854;SDS011;45732;52.850;6.896;2022-11-15T07:32:30;31.40;;;21.65;;
59854;SDS011;45732;52.850;6.896;2022-11-15T07:34:55;27.27;;;21.70;;
59854;SDS011;45732;52.850;6.896;2022-11-15T07:37:21;28.40;;;21.67;;
59854;SDS011;45732;52.850;6.896;2022-11-15T07:39:47;28.40;;;21.27;;
59854;SDS011;45732;52.850;6.896;2022-11-15T07:42:13;31.73;;;21.75;;
59854;SDS011;45732;52.850;6.896;2022-11-15T07:44:57;26.85;;;21.45;;
59854;SDS011;45732;52.850;6.896;2022-11-15T07:47:22;29.02;;;22.00;;
59854;SDS011;45732;52.850;6.896;2022-11-15T07:49:48;26.30;;;21.13;;
59854;SDS011;45732;52.850;6.896;2022-11-15T07:52:14;26.33;;;20.45;;
59854;SDS011;45732;52.850;6.896;2022-11-15T07:54:39;28.63;;;20.65;;
59854;SDS011;45732;52.850;6.896;2022-11-15T07:57:05;29.60;;;20.52;;
59854;SDS011;45732;52.850;6.896;2022-11-15T07:59:32;26.35;;;20.83;;
59854;SDS011;45732;52.850;6.896;2022-11-15T08:01:59;27.55;;;21.38;;
59854;SDS011;45732;52.850;6.896;2022-11-15T08:04:25;28.35;;;21.02;;
59854;SDS011;45732;52.850;6.896;2022-11-15T08:06:51;28.63;;;21.42;;
59854;SDS011;45732;52.850;6.896;2022-11-15T08:09:16;28.30;;;20.90;;
59854;SDS011;45732;52.850;6.896;2022-11-15T08:11:42;27.58;;;21.08;;
59854;SDS011;45732;52.850;6.896;2022-11-15T08:14:08;27.77;;;20.90;;
59854;SDS011;45732;52.850;6.896;2022-11-15T08:16:33;27.00;;;21.85;;
59854;SDS011;45732;52.850;6.896;2022-11-15T08:18:59;30.50;;;22.30;;
59854;SDS011;45732;52.850;6.896;2022-11-15T08:21:25;27.30;;;22.73;;
59854;SDS011;45732;52.850;6.896;2022-11-15T08:23:50;31.75;;;23.42;;
59854;SDS011;45732;52.850;6.896;2022-11-15T08:26:16;28.00;;;22.25;;
59854;SDS011;45732;52.850;6.896;2022-11-15T08:28:42;30.50;;;22.83;;
59854;SDS011;45732;52.850;6.896;2022-11-15T08:31:13;30.80;;;22.75;;
59854;SDS011;45732;52.850;6.896;2022-11-15T08:33:41;31.23;;;22.88;;
59854;SDS011;45732;52.850;6.896;2022-11-15T08:36:10;27.30;;;22.48;;
59854;SDS011;45732;52.850;6.896;2022-11-15T08:38:40;30.70;;;24.25;;
59854;SDS011;45732;52.850;6.896;2022-11-15T08:41:06;29.73;;;22.90;;
59854;SDS011;45732;52.850;6.896;2022-11-15T08:43:35;29.92;;;22.63;;
59854;SDS011;45732;52.850;6.896;2022-11-15T08:46:01;33.70;;;23.00;;
59854;SDS011;45732;52.850;6.896;2022-11-15T08:48:26;30.77;;;23.88;;
59854;SDS011;45732;52.850;6.896;2022-11-15T08:50:55;31.52;;;24.27;;
59854;SDS011;45732;52.850;6.896;2022-11-15T08:53:22;30.95;;;24.15;;
59854;SDS011;45732;52.850;6.896;2022-11-15T08:55:48;33.65;;;25.88;;
59854;SDS011;45732;52.850;6.896;2022-11-15T08:58:14;31.10;;;25.00;;
59854;SDS011;45732;52.850;6.896;2022-11-15T09:00:39;30.77;;;24.20;;
59854;SDS011;45732;52.850;6.896;2022-11-15T09:03:05;30.83;;;25.05;;
59854;SDS011;45732;52.850;6.896;2022-11-15T09:05:32;33.22;;;25.73;;
59854;SDS011;45732;52.850;6.896;2022-11-15T09:08:00;33.63;;;26.20;;
59854;SDS011;45732;52.850;6.896;2022-11-15T09:10:26;32.90;;;26.92;;
59854;SDS011;45732;52.850;6.896;2022-11-15T09:12:51;31.60;;;24.58;;
59854;SDS011;45732;52.850;6.896;2022-11-15T09:15:17;30.25;;;24.48;;
59854;SDS011;45732;52.850;6.896;2022-11-15T09:17:43;33.45;;;26.17;;
59854;SDS011;45732;52.850;6.896;2022-11-15T09:20:09;32.50;;;25.75;;
59854;SDS011;45732;52.850;6.896;2022-11-15T09:22:35;29.55;;;24.08;;
59854;SDS011;45732;52.850;6.896;2022-11-15T09:25:02;34.20;;;26.85;;
59854;SDS011;45732;52.850;6.896;2022-11-15T09:27:29;35.97;;;27.35;;
59854;SDS011;45732;52.850;6.896;2022-11-15T09:29:55;35.50;;;27.30;;
59854;SDS011;45732;52.850;6.896;2022-11-15T09:32:20;30.65;;;25.52;;
59854;SDS011;45732;52.850;6.896;2022-11-15T09:34:48;32.85;;;26.48;;
59854;SDS011;45732;52.850;6.896;2022-11-15T09:37:14;32.60;;;26.80;;
59854;SDS011;45732;52.850;6.896;2022-11-15T09:39:40;30.83;;;25.85;;
59854;SDS011;45732;52.850;6.896;2022-11-15T09:42:25;29.67;;;25.83;;
59854;SDS011;45732;52.850;6.896;2022-11-15T09:53:12;24.10;;;21.50;;
59854;SDS011;45732;52.850;6.896;2022-11-15T09:56:03;27.08;;;24.08;;
59854;SDS011;45732;52.850;6.896;2022-11-15T10:01:08;29.83;;;23.75;;
59854;SDS011;45732;52.850;6.896;2022-11-15T10:03:41;27.95;;;23.92;;
59854;SDS011;45732;52.850;6.896;2022-11-15T10:06:09;28.35;;;22.67;;
59854;SDS011;45732;52.850;6.896;2022-11-15T10:11:17;31.45;;;26.63;;
59854;SDS011;45732;52.850;6.896;2022-11-15T10:13:46;28.23;;;23.58;;
59854;SDS011;45732;52.850;6.896;2022-11-15T10:19:07;25.02;;;21.30;;
59854;SDS011;45732;52.850;6.896;2022-11-15T10:24:12;24.33;;;19.65;;
59854;SDS011;45732;52.850;6.896;2022-11-15T10:26:46;23.77;;;20.52;;
59854;SDS011;45732;52.850;6.896;2022-11-15T10:29:17;26.90;;;21.13;;
59854;SDS011;45732;52.850;6.896;2022-11-15T10:31:44;25.67;;;20.13;;
59854;SDS011;45732;52.850;6.896;2022-11-15T10:34:12;25.77;;;20.75;;
59854;SDS011;45732;52.850;6.896;2022-11-15T10:36:59;22.23;;;19.40;;
59854;SDS011;45732;52.850;6.896;2022-11-15T10:39:27;21.63;;;18.63;;
59854;SDS011;45732;52.850;6.896;2022-11-15T10:41:53;22.25;;;18.65;;
59854;SDS011;45732;52.850;6.896;2022-11-15T10:44:23;23.55;;;19.77;;
59854;SDS011;45732;52.850;6.896;2022-11-15T10:51:57;21.73;;;18.10;;
59854;SDS011;45732;52.850;6.896;2022-11-15T10:57:06;21.42;;;18.80;;
59854;SDS011;45732;52.850;6.896;2022-11-15T10:59:36;19.60;;;17.42;;
59854;SDS011;45732;52.850;6.896;2022-11-15T11:02:21;18.77;;;15.52;;
59854;SDS011;45732;52.850;6.896;2022-11-15T11:08:21;17.20;;;14.63;;
59854;SDS011;45732;52.850;6.896;2022-11-15T11:10:52;15.68;;;12.38;;
59854;SDS011;45732;52.850;6.896;2022-11-15T11:15:58;15.45;;;11.88;;
59854;SDS011;45732;52.850;6.896;2022-11-15T11:18:26;17.23;;;11.60;;
59854;SDS011;45732;52.850;6.896;2022-11-15T11:21:02;16.95;;;11.80;;
59854;SDS011;45732;52.850;6.896;2022-11-15T11:23:38;13.90;;;9.70;;
59854;SDS011;45732;52.850;6.896;2022-11-15T11:29:12;13.23;;;8.65;;
59854;SDS011;45732;52.850;6.896;2022-11-15T11:51:10;10.27;;;6.30;;
59854;SDS011;45732;52.850;6.896;2022-11-15T11:56:38;9.63;;;5.80;;
59854;SDS011;45732;52.850;6.896;2022-11-15T12:01:59;8.82;;;5.75;;
59854;SDS011;45732;52.850;6.896;2022-11-15T12:04:38;10.48;;;5.85;;
59854;SDS011;45732;52.850;6.896;2022-11-15T12:07:08;9.73;;;5.70;;
59854;SDS011;45732;52.850;6.896;2022-11-15T12:09:45;9.52;;;5.47;;
59854;SDS011;45732;52.850;6.896;2022-11-15T12:15:19;9.43;;;4.40;;
59854;SDS011;45732;52.850;6.896;2022-11-15T12:17:49;8.25;;;4.57;;
59854;SDS011;45732;52.850;6.896;2022-11-15T12:20:19;6.95;;;4.10;;
59854;SDS011;45732;52.850;6.896;2022-11-15T12:22:49;7.43;;;4.05;;
59854;SDS011;45732;52.850;6.896;2022-11-15T12:28:07;9.43;;;4.70;;
59854;SDS011;45732;52.850;6.896;2022-11-15T12:33:34;8.13;;;4.10;;
59854;SDS011;45732;52.850;6.896;2022-11-15T12:36:05;8.48;;;3.97;;
59854;SDS011;45732;52.850;6.896;2022-11-15T12:41:20;8.45;;;3.17;;
59854;SDS011;45732;52.850;6.896;2022-11-15T12:43:47;6.88;;;3.25;;
59854;SDS011;45732;52.850;6.896;2022-11-15T12:49:11;8.18;;;3.67;;
59854;SDS011;45732;52.850;6.896;2022-11-15T13:02:24;7.50;;;3.90;;
59854;SDS011;45732;52.850;6.896;2022-11-15T13:04:55;9.25;;;3.83;;
59854;SDS011;45732;52.850;6.896;2022-11-15T13:33:26;4.35;;;2.83;;
59854;SDS011;45732;52.850;6.896;2022-11-15T13:36:03;5.38;;;3.70;;
59854;SDS011;45732;52.850;6.896;2022-11-15T13:38:34;7.43;;;3.40;;
59854;SDS011;45732;52.850;6.896;2022-11-15T13:41:11;6.05;;;3.10;;
59854;SDS011;45732;52.850;6.896;2022-11-15T13:43:46;6.90;;;3.00;;
59854;SDS011;45732;52.850;6.896;2022-11-15T13:46:17;6.90;;;3.60;;
59854;SDS011;45732;52.850;6.896;2022-11-15T13:51:26;6.50;;;3.10;;
59854;SDS011;45732;52.850;6.896;2022-11-15T13:54:23;7.40;;;4.40;;
59854;SDS011;45732;52.850;6.896;2022-11-15T13:56:54;6.35;;;4.07;;
59854;SDS011;45732;52.850;6.896;2022-11-15T14:01:58;7.45;;;3.53;;
59854;SDS011;45732;52.850;6.896;2022-11-15T14:04:27;6.75;;;3.90;;
59854;SDS011;45732;52.850;6.896;2022-11-15T14:06:56;9.57;;;4.93;;
59854;SDS011;45732;52.850;6.896;2022-11-15T14:09:25;6.72;;;4.93;;
59854;SDS011;45732;52.850;6.896;2022-11-15T14:12:21;6.47;;;3.90;;
59854;SDS011;45732;52.850;6.896;2022-11-15T14:19:53;5.47;;;3.83;;
59854;SDS011;45732;52.850;6.896;2022-11-15T14:22:29;6.90;;;4.68;;
59854;SDS011;45732;52.850;6.896;2022-11-15T14:25:16;7.00;;;4.03;;
59854;SDS011;45732;52.850;6.896;2022-11-15T14:30:34;8.13;;;4.60;;
59854;SDS011;45732;52.850;6.896;2022-11-15T14:33:00;6.57;;;4.60;;
59854;SDS011;45732;52.850;6.896;2022-11-15T14:35:26;7.60;;;4.97;;
59854;SDS011;45732;52.850;6.896;2022-11-15T14:37:51;6.75;;;4.93;;
59854;SDS011;45732;52.850;6.896;2022-11-15T14:40:18;8.02;;;5.13;;
59854;SDS011;45732;52.850;6.896;2022-11-15T14:42:46;7.30;;;5.53;;
59854;SDS011;45732;52.850;6.896;2022-11-15T14:45:15;9.30;;;5.00;;
59854;SDS011;45732;52.850;6.896;2022-11-15T14:47:44;9.20;;;5.82;;
59854;SDS011;45732;52.850;6.896;2022-11-15T14:50:13;7.80;;;6.00;;
59854;SDS011;45732;52.850;6.896;2022-11-15T14:52:43;8.30;;;5.53;;
59854;SDS011;45732;52.850;6.896;2022-11-15T14:55:17;7.60;;;4.60;;
59854;SDS011;45732;52.850;6.896;2022-11-15T14:57:53;9.38;;;4.70;;
59854;SDS011;45732;52.850;6.896;2022-11-15T15:00:19;7.40;;;4.70;;
59854;SDS011;45732;52.850;6.896;2022-11-15T15:02:46;8.05;;;4.75;;
59854;SDS011;45732;52.850;6.896;2022-11-15T15:05:20;6.78;;;4.60;;
59854;SDS011;45732;52.850;6.896;2022-11-15T15:07:48;7.15;;;4.70;;
59854;SDS011;45732;52.850;6.896;2022-11-15T15:10:15;6.85;;;4.65;;
59854;SDS011;45732;52.850;6.896;2022-11-15T15:12:41;9.57;;;5.18;;
59854;SDS011;45732;52.850;6.896;2022-11-15T15:15:20;6.63;;;4.90;;
59854;SDS011;45732;52.850;6.896;2022-11-15T15:17:49;7.03;;;5.53;;
59854;SDS011;45732;52.850;6.896;2022-11-15T15:20:15;9.02;;;7.53;;
59854;SDS011;45732;52.850;6.896;2022-11-15T15:22:40;12.35;;;7.53;;
59854;SDS011;45732;52.850;6.896;2022-11-15T15:27:58;8.07;;;6.50;;
59854;SDS011;45732;52.850;6.896;2022-11-15T15:30:26;10.55;;;7.97;;
59854;SDS011;45732;52.850;6.896;2022-11-15T15:32:52;6.65;;;4.47;;
59854;SDS011;45732;52.850;6.896;2022-11-15T15:35:19;7.80;;;5.05;;
59854;SDS011;45732;52.850;6.896;2022-11-15T15:37:45;6.25;;;4.50;;
59854;SDS011;45732;52.850;6.896;2022-11-15T15:42:43;7.38;;;4.30;;
59854;SDS011;45732;52.850;6.896;2022-11-15T15:45:09;6.32;;;4.25;;
59854;SDS011;45732;52.850;6.896;2022-11-15T15:47:35;6.90;;;4.72;;
59854;SDS011;45732;52.850;6.896;2022-11-15T15:50:01;7.40;;;5.88;;
59854;SDS011;45732;52.850;6.896;2022-11-15T15:52:27;6.03;;;3.58;;
59854;SDS011;45732;52.850;6.896;2022-11-15T15:54:53;5.50;;;3.72;;
59854;SDS011;45732;52.850;6.896;2022-11-15T15:57:18;5.43;;;4.10;;
59854;SDS011;45732;52.850;6.896;2022-11-15T15:59:44;7.15;;;3.85;;
59854;SDS011;45732;52.850;6.896;2022-11-15T16:02:13;5.82;;;3.95;;
59854;SDS011;45732;52.850;6.896;2022-11-15T16:04:39;6.00;;;3.60;;
59854;SDS011;45732;52.850;6.896;2022-11-15T16:07:05;6.03;;;4.18;;
59854;SDS011;45732;52.850;6.896;2022-11-15T16:09:37;6.47;;;3.27;;
59854;SDS011;45732;52.850;6.896;2022-11-15T16:12:21;5.72;;;3.40;;
59854;SDS011;45732;52.850;6.896;2022-11-15T16:14:46;5.10;;;3.50;;
59854;SDS011;45732;52.850;6.896;2022-11-15T16:17:16;6.45;;;3.65;;
59854;SDS011;45732;52.850;6.896;2022-11-15T16:19:44;6.00;;;3.58;;
59854;SDS011;45732;52.850;6.896;2022-11-15T16:22:10;6.72;;;3.10;;
59854;SDS011;45732;52.850;6.896;2022-11-15T16:24:36;6.38;;;3.20;;
59854;SDS011;45732;52.850;6.896;2022-11-15T16:27:02;6.15;;;3.72;;
59854;SDS011;45732;52.850;6.896;2022-11-15T16:29:28;4.40;;;2.80;;
59854;SDS011;45732;52.850;6.896;2022-11-15T16:31:54;5.13;;;3.03;;
59854;SDS011;45732;52.850;6.896;2022-11-15T16:34:19;6.10;;;2.90;;
59854;SDS011;45732;52.850;6.896;2022-11-15T16:36:45;4.63;;;2.30;;
59854;SDS011;45732;52.850;6.896;2022-11-15T16:39:11;6.40;;;3.30;;
59854;SDS011;45732;52.850;6.896;2022-11-15T16:41:43;6.23;;;4.70;;
59854;SDS011;45732;52.850;6.896;2022-11-15T16:44:12;6.43;;;4.00;;
59854;SDS011;45732;52.850;6.896;2022-11-15T16:46:38;7.20;;;3.20;;
59854;SDS011;45732;52.850;6.896;2022-11-15T16:49:11;6.68;;;2.60;;
59854;SDS011;45732;52.850;6.896;2022-11-15T16:51:39;7.90;;;4.75;;
59854;SDS011;45732;52.850;6.896;2022-11-15T16:54:05;5.43;;;2.80;;
59854;SDS011;45732;52.850;6.896;2022-11-15T16:56:32;5.57;;;2.38;;
59854;SDS011;45732;52.850;6.896;2022-11-15T16:58:59;4.75;;;2.20;;
59854;SDS011;45732;52.850;6.896;2022-11-15T17:01:26;4.78;;;3.30;;
59854;SDS011;45732;52.850;6.896;2022-11-15T17:03:53;5.78;;;2.67;;
59854;SDS011;45732;52.850;6.896;2022-11-15T17:06:20;5.95;;;3.72;;
59854;SDS011;45732;52.850;6.896;2022-11-15T17:08:47;6.68;;;3.20;;
59854;SDS011;45732;52.850;6.896;2022-11-15T17:11:17;5.63;;;2.65;;
59854;SDS011;45732;52.850;6.896;2022-11-15T17:13:45;5.97;;;3.47;;
59854;SDS011;45732;52.850;6.896;2022-11-15T17:16:16;5.90;;;3.10;;